Baltimore, Ohio
Current Conditions -  °F | °C
As of 6:40 AM on Tuesday 21 Oct 2014 (Local Time) from KLHQ Reporting Station
Haze Haze  
Wind Chill: 51°   Ceiling: 2200
Heat Index: 51°   Visibility: 4mi
Dew Point: 48°   Wind: 6mph
Humidity: 89%   Direction: 300°WNW
Pressure: 29.9"   Gusts: NA
Location:  39.85°N, 82.6°W
Report Text: KLHQ 211040Z AUTO 30005KT 4SM BR SCT009 OVC022 11/09 A2990 RMK AO2 T01060089
Loading
Personal Weather Stations






























Interactive Weather Map
Tropical Storm Tracking
New forecast layout! Learn more

10-Day Weather Forecast

Advertisements
Track Severe Weather on mobile